sensor_id;sensor_type;location;lat;lon;timestamp;temperature;humidity
4435;DHT22;46552;52.150;8.428;2022-12-18T00:01:18;-7.10;96.90
4435;DHT22;46552;52.150;8.428;2022-12-18T00:03:46;-7.10;96.90
4435;DHT22;46552;52.150;8.428;2022-12-18T00:06:13;-7.10;97.00
4435;DHT22;46552;52.150;8.428;2022-12-18T00:08:41;-7.10;97.00
4435;DHT22;46552;52.150;8.428;2022-12-18T00:11:10;-7.10;97.00
4435;DHT22;46552;52.150;8.428;2022-12-18T00:13:38;-7.10;96.80
4435;DHT22;46552;52.150;8.428;2022-12-18T00:16:08;-7.20;96.80
4435;DHT22;46552;52.150;8.428;2022-12-18T00:18:39;-7.30;96.90
4435;DHT22;46552;52.150;8.428;2022-12-18T00:21:07;-6.50;97.30
4435;DHT22;46552;52.150;8.428;2022-12-18T00:23:37;-7.40;97.10
4435;DHT22;46552;52.150;8.428;2022-12-18T00:26:06;-7.40;97.00
4435;DHT22;46552;52.150;8.428;2022-12-18T00:28:34;-6.30;97.40
4435;DHT22;46552;52.150;8.428;2022-12-18T00:31:03;-7.50;97.00
4435;DHT22;46552;52.150;8.428;2022-12-18T00:33:30;-7.50;97.40
4435;DHT22;46552;52.150;8.428;2022-12-18T00:36:02;-7.50;97.10
4435;DHT22;46552;52.150;8.428;2022-12-18T00:38:29;-7.50;97.00
4435;DHT22;46552;52.150;8.428;2022-12-18T00:40:56;-7.60;97.00
4435;DHT22;46552;52.150;8.428;2022-12-18T00:43:25;-7.70;97.00
4435;DHT22;46552;52.150;8.428;2022-12-18T00:45:51;-7.80;97.00
4435;DHT22;46552;52.150;8.428;2022-12-18T00:48:19;-7.80;97.10
4435;DHT22;46552;52.150;8.428;2022-12-18T00:50:47;-7.80;97.00
4435;DHT22;46552;52.150;8.428;2022-12-18T00:53:18;-7.80;97.10
4435;DHT22;46552;52.150;8.428;2022-12-18T00:55:45;-7.80;97.10
4435;DHT22;46552;52.150;8.428;2022-12-18T00:58:13;-7.90;97.10
4435;DHT22;46552;52.150;8.428;2022-12-18T01:00:42;-7.90;97.20
4435;DHT22;46552;52.150;8.428;2022-12-18T01:03:10;-7.90;97.30
4435;DHT22;46552;52.150;8.428;2022-12-18T01:05:40;-8.00;97.30
4435;DHT22;46552;52.150;8.428;2022-12-18T01:08:07;-6.30;98.00
4435;DHT22;46552;52.150;8.428;2022-12-18T01:10:40;-7.80;97.30
4435;DHT22;46552;52.150;8.428;2022-12-18T01:13:07;-7.80;97.30
4435;DHT22;46552;52.150;8.428;2022-12-18T01:15:34;-7.70;97.30
4435;DHT22;46552;52.150;8.428;2022-12-18T01:18:01;-7.60;97.30
4435;DHT22;46552;52.150;8.428;2022-12-18T01:20:28;-7.60;97.20
4435;DHT22;46552;52.150;8.428;2022-12-18T01:22:55;-7.60;97.10
4435;DHT22;46552;52.150;8.428;2022-12-18T01:25:22;-7.60;97.10
4435;DHT22;46552;52.150;8.428;2022-12-18T01:27:53;-6.30;97.70
4435;DHT22;46552;52.150;8.428;2022-12-18T01:30:20;-7.50;97.00
4435;DHT22;46552;52.150;8.428;2022-12-18T01:32:48;-7.70;97.10
4435;DHT22;46552;52.150;8.428;2022-12-18T01:35:15;-7.70;97.20
4435;DHT22;46552;52.150;8.428;2022-12-18T01:37:42;-6.80;97.60
4435;DHT22;46552;52.150;8.428;2022-12-18T01:40:10;-7.80;97.20
4435;DHT22;46552;52.150;8.428;2022-12-18T01:42:37;-7.80;97.20
4435;DHT22;46552;52.150;8.428;2022-12-18T01:45:24;-7.80;97.30
4435;DHT22;46552;52.150;8.428;2022-12-18T01:47:53;-7.70;97.20
4435;DHT22;46552;52.150;8.428;2022-12-18T01:50:23;-7.70;96.80
4435;DHT22;46552;52.150;8.428;2022-12-18T01:52:53;-7.70;97.00
4435;DHT22;46552;52.150;8.428;2022-12-18T01:55:24;-7.60;97.00
4435;DHT22;46552;52.150;8.428;2022-12-18T01:57:53;-5.70;97.90
4435;DHT22;46552;52.150;8.428;2022-12-18T02:00:24;-7.70;97.10
4435;DHT22;46552;52.150;8.428;2022-12-18T02:02:52;-7.80;97.20
4435;DHT22;46552;52.150;8.428;2022-12-18T02:05:26;-7.70;97.30
4435;DHT22;46552;52.150;8.428;2022-12-18T02:08:03;-7.70;97.30
4435;DHT22;46552;52.150;8.428;2022-12-18T02:10:38;-7.70;97.10
4435;DHT22;46552;52.150;8.428;2022-12-18T02:13:13;-7.70;97.00
4435;DHT22;46552;52.150;8.428;2022-12-18T02:15:49;-7.80;97.00
4435;DHT22;46552;52.150;8.428;2022-12-18T02:18:20;-7.80;97.00
4435;DHT22;46552;52.150;8.428;2022-12-18T02:20:53;-7.80;97.10
4435;DHT22;46552;52.150;8.428;2022-12-18T02:23:32;-7.70;97.10
4435;DHT22;46552;52.150;8.428;2022-12-18T02:26:17;-7.70;97.10
4435;DHT22;46552;52.150;8.428;2022-12-18T02:28:47;-7.70;97.20
4435;DHT22;46552;52.150;8.428;2022-12-18T02:31:21;-7.70;97.50
4435;DHT22;46552;52.150;8.428;2022-12-18T02:33:51;-7.80;97.40
4435;DHT22;46552;52.150;8.428;2022-12-18T02:36:20;-7.80;97.40
4435;DHT22;46552;52.150;8.428;2022-12-18T02:38:49;-6.20;98.00
4435;DHT22;46552;52.150;8.428;2022-12-18T02:41:19;-7.70;97.30
4435;DHT22;46552;52.150;8.428;2022-12-18T02:43:48;-7.60;97.30
4435;DHT22;46552;52.150;8.428;2022-12-18T02:46:30;-7.70;97.20
4435;DHT22;46552;52.150;8.428;2022-12-18T02:49:04;-7.60;97.20
4435;DHT22;46552;52.150;8.428;2022-12-18T02:51:40;-7.60;97.20
4435;DHT22;46552;52.150;8.428;2022-12-18T02:54:19;-7.60;97.20
4435;DHT22;46552;52.150;8.428;2022-12-18T02:56:53;-7.60;97.10
4435;DHT22;46552;52.150;8.428;2022-12-18T02:59:29;-6.40;97.60
4435;DHT22;46552;52.150;8.428;2022-12-18T03:02:01;-7.70;97.20
4435;DHT22;46552;52.150;8.428;2022-12-18T03:04:33;-7.70;97.20
4435;DHT22;46552;52.150;8.428;2022-12-18T03:07:04;-7.80;97.30
4435;DHT22;46552;52.150;8.428;2022-12-18T03:09:35;-7.80;97.20
4435;DHT22;46552;52.150;8.428;2022-12-18T03:12:10;-7.90;97.20
4435;DHT22;46552;52.150;8.428;2022-12-18T03:14:54;-7.90;97.30
4435;DHT22;46552;52.150;8.428;2022-12-18T03:17:25;-7.90;97.30
4435;DHT22;46552;52.150;8.428;2022-12-18T03:19:54;-7.80;97.30
4435;DHT22;46552;52.150;8.428;2022-12-18T03:22:27;-7.80;97.20
4435;DHT22;46552;52.150;8.428;2022-12-18T03:24:57;-7.80;97.10
4435;DHT22;46552;52.150;8.428;2022-12-18T03:27:29;-7.80;97.00
4435;DHT22;46552;52.150;8.428;2022-12-18T03:30:02;-7.90;97.00
4435;DHT22;46552;52.150;8.428;2022-12-18T03:32:39;-7.90;97.10
4435;DHT22;46552;52.150;8.428;2022-12-18T03:35:08;-7.90;97.30
4435;DHT22;46552;52.150;8.428;2022-12-18T03:37:38;-7.90;97.30
4435;DHT22;46552;52.150;8.428;2022-12-18T03:40:06;-7.90;97.30
4435;DHT22;46552;52.150;8.428;2022-12-18T03:42:41;-7.90;97.30
4435;DHT22;46552;52.150;8.428;2022-12-18T03:45:13;-8.00;97.40
4435;DHT22;46552;52.150;8.428;2022-12-18T03:47:54;-7.90;97.40
4435;DHT22;46552;52.150;8.428;2022-12-18T03:50:33;-8.00;97.40
4435;DHT22;46552;52.150;8.428;2022-12-18T03:53:10;-8.00;97.40
4435;DHT22;46552;52.150;8.428;2022-12-18T03:55:41;-8.00;97.40
4435;DHT22;46552;52.150;8.428;2022-12-18T03:58:13;-8.10;97.40
4435;DHT22;46552;52.150;8.428;2022-12-18T04:00:43;-8.10;97.60
4435;DHT22;46552;52.150;8.428;2022-12-18T04:03:12;-8.00;97.50
4435;DHT22;46552;52.150;8.428;2022-12-18T04:05:41;-8.00;97.50
4435;DHT22;46552;52.150;8.428;2022-12-18T04:08:09;-6.40;98.10
4435;DHT22;46552;52.150;8.428;2022-12-18T04:10:37;-8.00;97.30
4435;DHT22;46552;52.150;8.428;2022-12-18T04:13:04;-8.00;97.30
4435;DHT22;46552;52.150;8.428;2022-12-18T04:15:34;-8.00;97.30
4435;DHT22;46552;52.150;8.428;2022-12-18T04:18:02;-7.90;97.30
4435;DHT22;46552;52.150;8.428;2022-12-18T04:20:30;-7.90;97.30
4435;DHT22;46552;52.150;8.428;2022-12-18T04:22:57;-7.90;97.50
4435;DHT22;46552;52.150;8.428;2022-12-18T04:25:25;-7.90;97.50
4435;DHT22;46552;52.150;8.428;2022-12-18T04:27:53;-7.90;97.40
4435;DHT22;46552;52.150;8.428;2022-12-18T04:30:21;-8.00;97.30
4435;DHT22;46552;52.150;8.428;2022-12-18T04:32:51;-8.10;97.30
4435;DHT22;46552;52.150;8.428;2022-12-18T04:35:19;-8.10;97.30
4435;DHT22;46552;52.150;8.428;2022-12-18T04:37:46;-8.20;97.30
4435;DHT22;46552;52.150;8.428;2022-12-18T04:40:13;-8.20;97.40
4435;DHT22;46552;52.150;8.428;2022-12-18T04:42:40;-8.10;97.50
4435;DHT22;46552;52.150;8.428;2022-12-18T04:45:09;-8.20;97.40
4435;DHT22;46552;52.150;8.428;2022-12-18T04:47:36;-8.20;97.40
4435;DHT22;46552;52.150;8.428;2022-12-18T04:50:06;-8.20;97.40
4435;DHT22;46552;52.150;8.428;2022-12-18T04:52:35;-8.10;97.40
4435;DHT22;46552;52.150;8.428;2022-12-18T04:55:03;-8.20;97.30
4435;DHT22;46552;52.150;8.428;2022-12-18T04:57:30;-8.20;97.30
4435;DHT22;46552;52.150;8.428;2022-12-18T04:59:57;-8.30;97.50
4435;DHT22;46552;52.150;8.428;2022-12-18T05:02:25;-8.40;97.60
4435;DHT22;46552;52.150;8.428;2022-12-18T05:04:52;-8.40;97.60
4435;DHT22;46552;52.150;8.428;2022-12-18T05:07:20;-8.30;97.70
4435;DHT22;46552;52.150;8.428;2022-12-18T05:09:47;-8.30;97.70
4435;DHT22;46552;52.150;8.428;2022-12-18T05:12:14;-8.20;97.60
4435;DHT22;46552;52.150;8.428;2022-12-18T05:14:42;-8.20;97.50
4435;DHT22;46552;52.150;8.428;2022-12-18T05:17:09;-8.10;97.40
4435;DHT22;46552;52.150;8.428;2022-12-18T05:19:36;-8.10;97.40
4435;DHT22;46552;52.150;8.428;2022-12-18T05:22:03;-8.10;97.30
4435;DHT22;46552;52.150;8.428;2022-12-18T05:24:32;-8.10;97.30
4435;DHT22;46552;52.150;8.428;2022-12-18T05:26:59;-8.00;97.40
4435;DHT22;46552;52.150;8.428;2022-12-18T05:29:27;-8.00;97.50
4435;DHT22;46552;52.150;8.428;2022-12-18T05:31:54;-8.00;97.40
4435;DHT22;46552;52.150;8.428;2022-12-18T05:34:21;-8.00;97.50
4435;DHT22;46552;52.150;8.428;2022-12-18T05:36:48;-8.10;97.50
4435;DHT22;46552;52.150;8.428;2022-12-18T05:39:15;-8.10;97.60
4435;DHT22;46552;52.150;8.428;2022-12-18T05:41:45;-8.20;97.50
4435;DHT22;46552;52.150;8.428;2022-12-18T05:44:12;-8.20;97.40
4435;DHT22;46552;52.150;8.428;2022-12-18T05:46:39;-8.20;97.30
4435;DHT22;46552;52.150;8.428;2022-12-18T05:49:09;-8.30;97.40
4435;DHT22;46552;52.150;8.428;2022-12-18T05:51:35;-8.40;97.40
4435;DHT22;46552;52.150;8.428;2022-12-18T05:54:03;-8.40;97.40
4435;DHT22;46552;52.150;8.428;2022-12-18T05:56:30;-8.00;97.60
4435;DHT22;46552;52.150;8.428;2022-12-18T05:58:59;-8.40;97.50
4435;DHT22;46552;52.150;8.428;2022-12-18T06:01:26;-8.40;97.40
4435;DHT22;46552;52.150;8.428;2022-12-18T06:03:55;-8.40;97.40
4435;DHT22;46552;52.150;8.428;2022-12-18T06:06:24;-8.30;97.60
4435;DHT22;46552;52.150;8.428;2022-12-18T06:08:52;-8.30;97.60
4435;DHT22;46552;52.150;8.428;2022-12-18T06:11:20;-7.70;98.00
4435;DHT22;46552;52.150;8.428;2022-12-18T06:13:50;-8.20;97.70
4435;DHT22;46552;52.150;8.428;2022-12-18T06:16:19;-8.20;97.80
4435;DHT22;46552;52.150;8.428;2022-12-18T06:18:46;-8.20;97.70
4435;DHT22;46552;52.150;8.428;2022-12-18T06:21:13;-8.20;97.80
4435;DHT22;46552;52.150;8.428;2022-12-18T06:23:40;-8.10;97.80
4435;DHT22;46552;52.150;8.428;2022-12-18T06:26:13;-8.20;97.70
4435;DHT22;46552;52.150;8.428;2022-12-18T06:28:40;-8.20;97.70
4435;DHT22;46552;52.150;8.428;2022-12-18T06:31:08;-8.10;97.70
4435;DHT22;46552;52.150;8.428;2022-12-18T06:33:38;-8.10;97.70
4435;DHT22;46552;52.150;8.428;2022-12-18T06:36:07;-8.10;97.70
4435;DHT22;46552;52.150;8.428;2022-12-18T06:38:36;-8.10;97.90
4435;DHT22;46552;52.150;8.428;2022-12-18T06:41:06;-8.10;97.90
4435;DHT22;46552;52.150;8.428;2022-12-18T06:43:33;-8.10;97.70
4435;DHT22;46552;52.150;8.428;2022-12-18T06:46:01;-8.20;97.60
4435;DHT22;46552;52.150;8.428;2022-12-18T06:48:28;-8.20;97.60
4435;DHT22;46552;52.150;8.428;2022-12-18T06:50:57;-8.20;97.60
4435;DHT22;46552;52.150;8.428;2022-12-18T06:53:24;-8.20;97.60
4435;DHT22;46552;52.150;8.428;2022-12-18T06:55:51;-8.20;97.50
4435;DHT22;46552;52.150;8.428;2022-12-18T06:58:18;-8.20;97.50
4435;DHT22;46552;52.150;8.428;2022-12-18T07:00:45;-8.20;97.50
4435;DHT22;46552;52.150;8.428;2022-12-18T07:03:13;-8.10;97.50
4435;DHT22;46552;52.150;8.428;2022-12-18T07:05:40;-8.10;97.70
4435;DHT22;46552;52.150;8.428;2022-12-18T07:08:08;-8.10;97.90
4435;DHT22;46552;52.150;8.428;2022-12-18T07:10:41;-8.10;98.00
4435;DHT22;46552;52.150;8.428;2022-12-18T07:13:08;-8.20;97.80
4435;DHT22;46552;52.150;8.428;2022-12-18T07:15:35;-8.20;97.90
4435;DHT22;46552;52.150;8.428;2022-12-18T07:18:02;-8.30;97.70
4435;DHT22;46552;52.150;8.428;2022-12-18T07:20:29;-8.30;97.70
4435;DHT22;46552;52.150;8.428;2022-12-18T07:22:56;-7.40;98.00
4435;DHT22;46552;52.150;8.428;2022-12-18T07:25:25;-8.30;97.70
4435;DHT22;46552;52.150;8.428;2022-12-18T07:27:52;-8.30;97.60
4435;DHT22;46552;52.150;8.428;2022-12-18T07:30:19;-8.30;97.50
4435;DHT22;46552;52.150;8.428;2022-12-18T07:32:46;-8.30;97.50
4435;DHT22;46552;52.150;8.428;2022-12-18T07:35:13;-8.30;97.50
4435;DHT22;46552;52.150;8.428;2022-12-18T07:37:40;-8.30;97.60
4435;DHT22;46552;52.150;8.428;2022-12-18T07:40:09;-8.30;97.60
4435;DHT22;46552;52.150;8.428;2022-12-18T07:42:38;-8.30;97.60
4435;DHT22;46552;52.150;8.428;2022-12-18T07:45:06;-7.90;97.60
4435;DHT22;46552;52.150;8.428;2022-12-18T07:47:36;-8.10;97.50
4435;DHT22;46552;52.150;8.428;2022-12-18T07:50:04;-8.00;97.50
4435;DHT22;46552;52.150;8.428;2022-12-18T07:52:31;-7.80;97.10
4435;DHT22;46552;52.150;8.428;2022-12-18T07:54:58;-7.80;97.20
4435;DHT22;46552;52.150;8.428;2022-12-18T07:57:25;-7.70;97.10
4435;DHT22;46552;52.150;8.428;2022-12-18T07:59:55;-7.70;96.80
4435;DHT22;46552;52.150;8.428;2022-12-18T08:02:22;-7.70;96.70
4435;DHT22;46552;52.150;8.428;2022-12-18T08:04:50;-7.60;96.80
4435;DHT22;46552;52.150;8.428;2022-12-18T08:07:18;-7.60;96.70
4435;DHT22;46552;52.150;8.428;2022-12-18T08:09:45;-7.50;96.80
4435;DHT22;46552;52.150;8.428;2022-12-18T08:12:12;-7.40;96.80
4435;DHT22;46552;52.150;8.428;2022-12-18T08:14:40;-7.20;97.00
4435;DHT22;46552;52.150;8.428;2022-12-18T08:17:09;-6.80;96.80
4435;DHT22;46552;52.150;8.428;2022-12-18T08:19:36;-5.70;96.80
4435;DHT22;46552;52.150;8.428;2022-12-18T08:22:03;-6.40;96.30
4435;DHT22;46552;52.150;8.428;2022-12-18T08:24:31;-6.30;96.30
4435;DHT22;46552;52.150;8.428;2022-12-18T08:26:58;-6.20;96.30
4435;DHT22;46552;52.150;8.428;2022-12-18T08:29:25;-4.90;97.10
4435;DHT22;46552;52.150;8.428;2022-12-18T08:31:52;-5.00;96.50
4435;DHT22;46552;52.150;8.428;2022-12-18T08:34:22;-3.70;95.70
4435;DHT22;46552;52.150;8.428;2022-12-18T08:36:49;-2.50;92.90
4435;DHT22;46552;52.150;8.428;2022-12-18T08:39:16;-1.60;92.00
4435;DHT22;46552;52.150;8.428;2022-12-18T08:41:43;-0.90;91.00
4435;DHT22;46552;52.150;8.428;2022-12-18T08:44:31;-0.10;89.70
4435;DHT22;46552;52.150;8.428;2022-12-18T08:47:07;1.20;87.80
4435;DHT22;46552;52.150;8.428;2022-12-18T08:49:37;2.10;81.20
4435;DHT22;46552;52.150;8.428;2022-12-18T08:52:04;2.40;78.80
4435;DHT22;46552;52.150;8.428;2022-12-18T08:54:32;2.70;80.20
4435;DHT22;46552;52.150;8.428;2022-12-18T08:57:00;2.90;78.00
4435;DHT22;46552;52.150;8.428;2022-12-18T08:59:28;3.40;76.70
4435;DHT22;46552;52.150;8.428;2022-12-18T09:01:55;3.50;74.30
4435;DHT22;46552;52.150;8.428;2022-12-18T09:04:22;3.50;74.60
4435;DHT22;46552;52.150;8.428;2022-12-18T09:06:51;3.50;73.50
4435;DHT22;46552;52.150;8.428;2022-12-18T09:09:18;3.00;73.10
4435;DHT22;46552;52.150;8.428;2022-12-18T09:11:45;2.60;74.60
4435;DHT22;46552;52.150;8.428;2022-12-18T09:14:12;2.20;75.30
4435;DHT22;46552;52.150;8.428;2022-12-18T09:16:39;1.80;75.90
4435;DHT22;46552;52.150;8.428;2022-12-18T09:19:06;1.20;76.30
4435;DHT22;46552;52.150;8.428;2022-12-18T09:21:37;0.70;77.40
4435;DHT22;46552;52.150;8.428;2022-12-18T09:24:12;0.20;78.20
4435;DHT22;46552;52.150;8.428;2022-12-18T09:26:39;-0.20;79.50
4435;DHT22;46552;52.150;8.428;2022-12-18T09:29:06;-0.30;81.00
4435;DHT22;46552;52.150;8.428;2022-12-18T09:31:36;-0.40;81.70
4435;DHT22;46552;52.150;8.428;2022-12-18T09:34:07;-0.60;82.60
4435;DHT22;46552;52.150;8.428;2022-12-18T09:36:34;-0.90;83.30
4435;DHT22;46552;52.150;8.428;2022-12-18T09:39:01;-1.10;84.80
4435;DHT22;46552;52.150;8.428;2022-12-18T09:41:43;-1.10;85.90
4435;DHT22;46552;52.150;8.428;2022-12-18T09:44:24;-1.00;86.10
4435;DHT22;46552;52.150;8.428;2022-12-18T09:47:02;-0.80;86.90
4435;DHT22;46552;52.150;8.428;2022-12-18T09:49:40;-0.50;87.20
4435;DHT22;46552;52.150;8.428;2022-12-18T09:52:16;0.30;87.40
4435;DHT22;46552;52.150;8.428;2022-12-18T09:54:46;1.60;85.60
4435;DHT22;46552;52.150;8.428;2022-12-18T09:57:19;2.90;82.50
4435;DHT22;46552;52.150;8.428;2022-12-18T09:59:51;4.00;80.20
4435;DHT22;46552;52.150;8.428;2022-12-18T10:02:21;5.10;76.30
4435;DHT22;46552;52.150;8.428;2022-12-18T10:04:55;5.70;73.80
4435;DHT22;46552;52.150;8.428;2022-12-18T10:07:32;6.00;72.10
4435;DHT22;46552;52.150;8.428;2022-12-18T10:10:10;6.10;71.10
4435;DHT22;46552;52.150;8.428;2022-12-18T10:12:47;6.30;71.20
4435;DHT22;46552;52.150;8.428;2022-12-18T10:15:22;6.60;70.90
4435;DHT22;46552;52.150;8.428;2022-12-18T10:17:54;7.50;71.10
4435;DHT22;46552;52.150;8.428;2022-12-18T10:20:29;8.50;68.40
4435;DHT22;46552;52.150;8.428;2022-12-18T10:23:01;9.50;65.80
4435;DHT22;46552;52.150;8.428;2022-12-18T10:25:36;10.20;62.30
4435;DHT22;46552;52.150;8.428;2022-12-18T10:28:12;10.40;60.30
4435;DHT22;46552;52.150;8.428;2022-12-18T10:30:41;10.50;59.70
4435;DHT22;46552;52.150;8.428;2022-12-18T10:33:11;10.40;59.90
4435;DHT22;46552;52.150;8.428;2022-12-18T10:35:41;10.40;60.00
4435;DHT22;46552;52.150;8.428;2022-12-18T10:38:22;10.60;59.60
4435;DHT22;46552;52.150;8.428;2022-12-18T10:40:52;11.00;58.40
4435;DHT22;46552;52.150;8.428;2022-12-18T10:43:25;11.20;58.80
4435;DHT22;46552;52.150;8.428;2022-12-18T10:46:02;11.40;58.10
4435;DHT22;46552;52.150;8.428;2022-12-18T10:48:31;11.50;57.50
4435;DHT22;46552;52.150;8.428;2022-12-18T10:50:59;11.60;57.70
4435;DHT22;46552;52.150;8.428;2022-12-18T10:53:28;11.70;57.60
4435;DHT22;46552;52.150;8.428;2022-12-18T10:56:00;11.70;57.10
4435;DHT22;46552;52.150;8.428;2022-12-18T10:58:32;11.50;57.00
4435;DHT22;46552;52.150;8.428;2022-12-18T11:01:05;11.30;56.70
4435;DHT22;46552;52.150;8.428;2022-12-18T11:03:35;11.00;57.20
4435;DHT22;46552;52.150;8.428;2022-12-18T11:06:05;10.80;58.30
4435;DHT22;46552;52.150;8.428;2022-12-18T11:08:33;10.80;58.80
4435;DHT22;46552;52.150;8.428;2022-12-18T11:11:01;10.50;59.00
4435;DHT22;46552;52.150;8.428;2022-12-18T11:13:31;10.20;59.60
4435;DHT22;46552;52.150;8.428;2022-12-18T11:15:58;9.60;61.40
4435;DHT22;46552;52.150;8.428;2022-12-18T11:18:28;9.00;62.50
4435;DHT22;46552;52.150;8.428;2022-12-18T11:20:58;8.40;63.50
4435;DHT22;46552;52.150;8.428;2022-12-18T11:23:26;8.00;64.50
4435;DHT22;46552;52.150;8.428;2022-12-18T11:25:56;7.70;65.40
4435;DHT22;46552;52.150;8.428;2022-12-18T11:28:37;7.40;66.10
4435;DHT22;46552;52.150;8.428;2022-12-18T11:31:19;7.20;66.50
4435;DHT22;46552;52.150;8.428;2022-12-18T11:34:00;6.80;67.50
4435;DHT22;46552;52.150;8.428;2022-12-18T11:36:31;6.50;67.90
4435;DHT22;46552;52.150;8.428;2022-12-18T11:39:07;6.10;68.90
4435;DHT22;46552;52.150;8.428;2022-12-18T11:41:42;5.80;69.40
4435;DHT22;46552;52.150;8.428;2022-12-18T11:44:34;5.40;70.50
4435;DHT22;46552;52.150;8.428;2022-12-18T11:47:08;5.00;71.70
4435;DHT22;46552;52.150;8.428;2022-12-18T11:49:36;4.70;72.90
4435;DHT22;46552;52.150;8.428;2022-12-18T11:52:13;4.30;73.70
4435;DHT22;46552;52.150;8.428;2022-12-18T11:54:42;4.10;74.70
4435;DHT22;46552;52.150;8.428;2022-12-18T11:57:15;3.90;75.60
4435;DHT22;46552;52.150;8.428;2022-12-18T11:59:54;3.70;76.70
4435;DHT22;46552;52.150;8.428;2022-12-18T12:02:42;3.50;78.20
4435;DHT22;46552;52.150;8.428;2022-12-18T12:05:35;3.40;80.30
4435;DHT22;46552;52.150;8.428;2022-12-18T12:08:09;3.20;81.60
4435;DHT22;46552;52.150;8.428;2022-12-18T12:10:47;3.00;81.50
4435;DHT22;46552;52.150;8.428;2022-12-18T12:13:29;2.90;82.40
4435;DHT22;46552;52.150;8.428;2022-12-18T12:16:15;2.80;84.00
4435;DHT22;46552;52.150;8.428;2022-12-18T12:19:05;2.70;84.60
4435;DHT22;46552;52.150;8.428;2022-12-18T12:21:40;2.60;86.70
4435;DHT22;46552;52.150;8.428;2022-12-18T12:24:24;2.50;86.70
4435;DHT22;46552;52.150;8.428;2022-12-18T12:26:59;2.40;88.20
4435;DHT22;46552;52.150;8.428;2022-12-18T12:29:38;2.40;88.70
4435;DHT22;46552;52.150;8.428;2022-12-18T12:32:29;2.20;89.20
4435;DHT22;46552;52.150;8.428;2022-12-18T12:35:12;2.20;90.20
4435;DHT22;46552;52.150;8.428;2022-12-18T12:37:53;2.10;90.30
4435;DHT22;46552;52.150;8.428;2022-12-18T12:40:27;2.10;90.40
4435;DHT22;46552;52.150;8.428;2022-12-18T12:42:59;2.00;90.40
4435;DHT22;46552;52.150;8.428;2022-12-18T12:45:42;1.90;90.70
4435;DHT22;46552;52.150;8.428;2022-12-18T12:48:18;1.90;90.90
4435;DHT22;46552;52.150;8.428;2022-12-18T12:50:48;1.80;91.30
4435;DHT22;46552;52.150;8.428;2022-12-18T12:53:23;1.80;91.10
4435;DHT22;46552;52.150;8.428;2022-12-18T12:55:53;1.70;91.50
4435;DHT22;46552;52.150;8.428;2022-12-18T12:58:28;1.70;91.40
4435;DHT22;46552;52.150;8.428;2022-12-18T13:01:14;1.70;91.70
4435;DHT22;46552;52.150;8.428;2022-12-18T13:03:54;1.70;91.60
4435;DHT22;46552;52.150;8.428;2022-12-18T13:06:32;1.60;91.90
4435;DHT22;46552;52.150;8.428;2022-12-18T13:09:01;1.50;92.00
4435;DHT22;46552;52.150;8.428;2022-12-18T13:11:35;1.50;92.10
4435;DHT22;46552;52.150;8.428;2022-12-18T13:14:23;1.40;92.40
4435;DHT22;46552;52.150;8.428;2022-12-18T13:16:50;1.40;92.50
4435;DHT22;46552;52.150;8.428;2022-12-18T13:19:26;1.40;92.40
4435;DHT22;46552;52.150;8.428;2022-12-18T13:21:54;1.40;92.70
4435;DHT22;46552;52.150;8.428;2022-12-18T13:24:26;1.30;92.70
4435;DHT22;46552;52.150;8.428;2022-12-18T13:26:55;1.40;93.20
4435;DHT22;46552;52.150;8.428;2022-12-18T13:29:40;1.20;93.00
4435;DHT22;46552;52.150;8.428;2022-12-18T13:32:20;1.20;93.20
4435;DHT22;46552;52.150;8.428;2022-12-18T13:34:48;1.10;93.30
4435;DHT22;46552;52.150;8.428;2022-12-18T13:37:44;1.20;93.30
4435;DHT22;46552;52.150;8.428;2022-12-18T13:43:28;1.00;93.60
4435;DHT22;46552;52.150;8.428;2022-12-18T13:46:05;1.00;93.40
4435;DHT22;46552;52.150;8.428;2022-12-18T13:48:34;1.00;93.40
4435;DHT22;46552;52.150;8.428;2022-12-18T13:51:06;1.10;93.20
4435;DHT22;46552;52.150;8.428;2022-12-18T13:53:37;1.30;93.40
4435;DHT22;46552;52.150;8.428;2022-12-18T13:56:06;1.00;93.30
4435;DHT22;46552;52.150;8.428;2022-12-18T13:58:34;1.00;93.30
4435;DHT22;46552;52.150;8.428;2022-12-18T14:01:01;0.90;93.50
4435;DHT22;46552;52.150;8.428;2022-12-18T14:03:30;1.10;93.40
4435;DHT22;46552;52.150;8.428;2022-12-18T14:06:05;0.90;93.30
4435;DHT22;46552;52.150;8.428;2022-12-18T14:08:38;0.90;93.30
4435;DHT22;46552;52.150;8.428;2022-12-18T14:11:06;0.90;93.50
4435;DHT22;46552;52.150;8.428;2022-12-18T14:13:37;0.90;93.50
4435;DHT22;46552;52.150;8.428;2022-12-18T14:16:06;0.80;93.60
4435;DHT22;46552;52.150;8.428;2022-12-18T14:18:43;0.80;93.70
4435;DHT22;46552;52.150;8.428;2022-12-18T14:21:20;0.80;93.90
4435;DHT22;46552;52.150;8.428;2022-12-18T14:23:49;0.70;94.10
4435;DHT22;46552;52.150;8.428;2022-12-18T14:26:30;0.70;94.10
4435;DHT22;46552;52.150;8.428;2022-12-18T14:29:00;0.70;94.30
4435;DHT22;46552;52.150;8.428;2022-12-18T14:31:30;0.80;94.40
4435;DHT22;46552;52.150;8.428;2022-12-18T14:33:57;0.60;94.50
4435;DHT22;46552;52.150;8.428;2022-12-18T14:36:27;0.60;94.50
4435;DHT22;46552;52.150;8.428;2022-12-18T14:38:57;0.60;94.70
4435;DHT22;46552;52.150;8.428;2022-12-18T14:41:25;0.60;94.60
4435;DHT22;46552;52.150;8.428;2022-12-18T14:43:54;0.60;94.80
4435;DHT22;46552;52.150;8.428;2022-12-18T14:46:30;0.50;94.80
4435;DHT22;46552;52.150;8.428;2022-12-18T14:49:01;0.50;94.90
4435;DHT22;46552;52.150;8.428;2022-12-18T14:51:32;0.50;94.90
4435;DHT22;46552;52.150;8.428;2022-12-18T14:54:01;0.50;95.00
4435;DHT22;46552;52.150;8.428;2022-12-18T14:56:31;0.50;95.00
4435;DHT22;46552;52.150;8.428;2022-12-18T14:59:00;0.50;95.10
4435;DHT22;46552;52.150;8.428;2022-12-18T15:01:31;0.50;95.20
4435;DHT22;46552;52.150;8.428;2022-12-18T15:04:00;0.50;95.30
4435;DHT22;46552;52.150;8.428;2022-12-18T15:06:35;0.50;95.20
4435;DHT22;46552;52.150;8.428;2022-12-18T15:09:06;0.50;95.20
4435;DHT22;46552;52.150;8.428;2022-12-18T15:11:47;0.80;95.40
4435;DHT22;46552;52.150;8.428;2022-12-18T15:14:33;0.40;95.10
4435;DHT22;46552;52.150;8.428;2022-12-18T15:17:03;0.40;95.20
4435;DHT22;46552;52.150;8.428;2022-12-18T15:19:37;0.50;95.30
4435;DHT22;46552;52.150;8.428;2022-12-18T15:22:18;0.40;95.30
4435;DHT22;46552;52.150;8.428;2022-12-18T15:24:47;0.40;95.30
4435;DHT22;46552;52.150;8.428;2022-12-18T15:27:26;0.40;95.30
4435;DHT22;46552;52.150;8.428;2022-12-18T15:30:17;0.40;95.40
4435;DHT22;46552;52.150;8.428;2022-12-18T15:32:45;0.40;95.40
4435;DHT22;46552;52.150;8.428;2022-12-18T15:35:20;0.30;95.30
4435;DHT22;46552;52.150;8.428;2022-12-18T15:37:50;0.40;95.40
4435;DHT22;46552;52.150;8.428;2022-12-18T15:40:20;0.50;95.80
4435;DHT22;46552;52.150;8.428;2022-12-18T15:42:51;0.30;95.40
4435;DHT22;46552;52.150;8.428;2022-12-18T15:45:36;0.40;95.60
4435;DHT22;46552;52.150;8.428;2022-12-18T15:48:17;0.40;95.50
4435;DHT22;46552;52.150;8.428;2022-12-18T15:50:45;0.40;95.40
4435;DHT22;46552;52.150;8.428;2022-12-18T15:53:14;0.30;95.50
4435;DHT22;46552;52.150;8.428;2022-12-18T15:55:41;0.60;95.70
4435;DHT22;46552;52.150;8.428;2022-12-18T15:58:25;0.60;95.50
4435;DHT22;46552;52.150;8.428;2022-12-18T16:00:52;0.50;95.30
4435;DHT22;46552;52.150;8.428;2022-12-18T16:03:20;0.80;95.40
4435;DHT22;46552;52.150;8.428;2022-12-18T16:05:47;0.50;95.00
4435;DHT22;46552;52.150;8.428;2022-12-18T16:08:16;0.50;94.90
4435;DHT22;46552;52.150;8.428;2022-12-18T16:10:43;0.50;94.70
4435;DHT22;46552;52.150;8.428;2022-12-18T16:13:11;0.50;94.90
4435;DHT22;46552;52.150;8.428;2022-12-18T16:15:39;0.60;94.50
4435;DHT22;46552;52.150;8.428;2022-12-18T16:18:06;0.60;94.30
4435;DHT22;46552;52.150;8.428;2022-12-18T16:20:33;0.60;94.30